createdAt,value
2023-05-08T00:00:08.843Z,16.77
2023-05-08T00:01:10.476Z,16.54
2023-05-08T00:02:12.019Z,16.46
2023-05-08T00:03:13.653Z,16.54
2023-05-08T00:04:15.631Z,16.56
2023-05-08T00:05:17.752Z,16.17
2023-05-08T00:06:19.407Z,15.96
2023-05-08T00:07:20.953Z,15.97
2023-05-08T00:08:23.077Z,15.98
2023-05-08T00:09:24.615Z,15.96
2023-05-08T00:10:27.622Z,15.77
2023-05-08T00:11:29.180Z,15.77
2023-05-08T00:12:30.822Z,15.76
2023-05-08T00:13:32.380Z,15.77
2023-05-08T00:14:33.989Z,15.75
2023-05-08T00:15:36.504Z,15.78
2023-05-08T00:16:38.173Z,15.84
2023-05-08T00:17:39.955Z,15.71
2023-05-08T00:18:41.633Z,15.75
2023-05-08T00:19:43.283Z,15.80
2023-05-08T00:20:44.905Z,15.87
2023-05-08T00:21:46.558Z,15.96
2023-05-08T00:22:48.081Z,15.99
2023-05-08T00:23:49.642Z,16.05
2023-05-08T00:24:51.188Z,16.13
2023-05-08T00:25:52.815Z,16.19
2023-05-08T00:26:54.351Z,16.28
2023-05-08T00:27:55.904Z,16.30
2023-05-08T00:28:57.554Z,16.32
2023-05-08T00:29:59.242Z,16.30
2023-05-08T00:31:02.106Z,16.33
2023-05-08T00:32:03.768Z,16.42
2023-05-08T00:33:05.385Z,16.44
2023-05-08T00:34:06.994Z,16.34
2023-05-08T00:35:08.739Z,16.16
2023-05-08T00:36:10.320Z,16.11
2023-05-08T00:37:11.868Z,16.22
2023-05-08T00:38:13.507Z,16.37
2023-05-08T00:39:15.089Z,16.40
2023-05-08T00:40:16.682Z,16.46
2023-05-08T00:41:18.279Z,16.58
2023-05-08T00:42:20.029Z,16.68
2023-05-08T00:43:28.048Z,16.72
2023-05-08T00:44:29.643Z,16.72
2023-05-08T00:45:37.814Z,16.74
2023-05-08T00:46:40.985Z,16.72
2023-05-08T00:47:43.080Z,16.68
2023-05-08T00:48:46.428Z,16.67
2023-05-08T00:49:48.836Z,16.62
2023-05-08T00:50:53.006Z,16.62
2023-05-08T00:51:56.030Z,16.65
2023-05-08T00:53:00.384Z,16.67
2023-05-08T00:54:02.394Z,16.70
2023-05-08T00:55:05.306Z,16.62
2023-05-08T00:56:14.290Z,16.51
2023-05-08T00:57:16.877Z,16.43
2023-05-08T00:58:20.702Z,16.23
2023-05-08T00:59:23.077Z,16.25
2023-05-08T01:00:25.106Z,16.29
2023-05-08T01:01:27.034Z,16.31
2023-05-08T01:02:31.471Z,16.33
2023-05-08T01:03:36.300Z,16.27
2023-05-08T01:04:39.342Z,16.19
2023-05-08T01:05:41.647Z,16.12
2023-05-08T01:06:43.283Z,16.10
2023-05-08T01:07:45.648Z,16.03
2023-05-08T01:08:47.226Z,16.04
2023-05-08T01:09:49.233Z,16.07
2023-05-08T01:11:09.421Z,16.11
2023-05-08T01:12:22.851Z,16.08
2023-05-08T01:14:07.878Z,16.00
2023-05-08T01:15:14.030Z,15.90
2023-05-08T01:16:16.615Z,15.80
2023-05-08T01:17:33.292Z,15.72
2023-05-08T01:18:46.132Z,15.70
2023-05-08T01:20:06.082Z,15.71
2023-05-08T01:21:27.165Z,15.59
2023-05-08T01:22:56.299Z,15.65
2023-05-08T01:24:36.026Z,15.68
2023-05-08T01:25:46.862Z,15.70
2023-05-08T01:27:03.889Z,15.76
2023-05-08T01:28:30.341Z,15.78
2023-05-08T01:30:05.032Z,15.88
2023-05-08T01:31:26.275Z,15.92
2023-05-08T01:32:35.163Z,15.90
2023-05-08T01:33:48.489Z,15.84
2023-05-08T01:34:55.702Z,15.84
2023-05-08T01:36:06.562Z,15.81
2023-05-08T01:37:12.703Z,15.80
2023-05-08T01:38:28.069Z,15.85
2023-05-08T01:40:02.614Z,15.96
2023-05-08T01:41:14.294Z,15.94
2023-05-08T01:42:26.530Z,15.87
2023-05-08T01:43:52.327Z,15.63
2023-05-08T01:45:18.882Z,15.60
2023-05-08T01:46:27.019Z,15.64
2023-05-08T01:47:33.180Z,15.72
2023-05-08T01:48:39.226Z,15.78
2023-05-08T01:49:45.731Z,15.89
2023-05-08T01:50:51.638Z,15.94
2023-05-08T01:51:59.491Z,15.99
2023-05-08T01:53:12.729Z,16.00
2023-05-08T01:54:24.341Z,16.00
2023-05-08T01:55:32.081Z,15.85
2023-05-08T01:56:35.527Z,15.88
2023-05-08T01:57:42.507Z,15.86
2023-05-08T01:58:45.763Z,15.80
2023-05-08T01:59:49.490Z,15.85
2023-05-08T02:00:51.560Z,15.96
2023-05-08T02:01:57.174Z,16.01
2023-05-08T02:02:59.640Z,16.07
2023-05-08T02:04:03.026Z,16.11
2023-05-08T02:05:06.818Z,16.14
2023-05-08T02:06:10.182Z,16.18
2023-05-08T02:07:11.991Z,16.22
2023-05-08T02:08:15.743Z,16.24
2023-05-08T02:09:19.996Z,16.27
2023-05-08T02:10:25.175Z,16.29
2023-05-08T02:11:27.829Z,16.19
2023-05-08T02:12:32.197Z,16.19
2023-05-08T02:13:35.705Z,16.22
2023-05-08T02:14:38.580Z,16.24
2023-05-08T02:15:42.098Z,16.20
2023-05-08T02:16:45.094Z,16.18
2023-05-08T02:17:49.656Z,16.10
2023-05-08T02:18:56.347Z,16.01
2023-05-08T02:20:00.972Z,16.02
2023-05-08T02:21:05.453Z,16.03
2023-05-08T02:22:08.708Z,16.06
2023-05-08T02:23:11.942Z,16.13
2023-05-08T02:24:14.726Z,16.11
2023-05-08T02:25:16.877Z,16.10
2023-05-08T02:26:21.446Z,16.06
2023-05-08T02:27:26.657Z,16.04
2023-05-08T02:28:30.008Z,16.04
2023-05-08T02:29:32.307Z,16.06
2023-05-08T02:30:35.001Z,16.06
2023-05-08T02:31:38.853Z,15.99
2023-05-08T02:32:45.681Z,15.90
2023-05-08T02:33:48.684Z,15.92
2023-05-08T02:35:02.004Z,15.98
2023-05-08T02:36:06.183Z,16.03
2023-05-08T02:37:08.577Z,16.08
2023-05-08T02:38:11.988Z,16.11
2023-05-08T02:39:15.211Z,16.10
2023-05-08T02:40:18.716Z,16.14
2023-05-08T02:41:23.063Z,16.09
2023-05-08T02:42:25.211Z,15.98
2023-05-08T02:43:27.384Z,15.92
2023-05-08T02:44:29.088Z,15.67
2023-05-08T02:45:37.073Z,15.46
2023-05-08T02:46:47.986Z,15.46
2023-05-08T02:48:10.868Z,15.54
2023-05-08T02:49:29.394Z,15.58
2023-05-08T02:50:41.896Z,15.60
2023-05-08T02:51:43.376Z,15.52
2023-05-08T02:52:49.975Z,15.37
2023-05-08T02:54:09.229Z,15.27
2023-05-08T02:55:21.063Z,15.22
2023-05-08T02:57:01.412Z,15.14
2023-05-08T02:58:12.579Z,15.16
2023-05-08T02:59:21.757Z,15.10
2023-05-08T03:00:29.170Z,14.97
2023-05-08T03:01:43.582Z,14.94
2023-05-08T03:02:56.193Z,15.08
2023-05-08T03:04:04.610Z,15.15
2023-05-08T03:05:30.665Z,15.16
2023-05-08T03:06:38.729Z,15.19
2023-05-08T03:07:41.857Z,15.32
2023-05-08T03:08:44.932Z,15.45
2023-05-08T03:09:50.769Z,15.45
2023-05-08T03:10:55.617Z,15.45
2023-05-08T03:12:06.446Z,15.50
2023-05-08T03:13:11.167Z,15.54
2023-05-08T03:14:15.916Z,15.55
2023-05-08T03:15:44.765Z,15.53
2023-05-08T03:16:51.070Z,15.36
2023-05-08T03:17:59.043Z,15.36
2023-05-08T03:19:03.803Z,15.42
2023-05-08T03:20:08.209Z,15.36
2023-05-08T03:21:13.237Z,15.30
2023-05-08T03:22:16.432Z,15.13
2023-05-08T03:23:20.835Z,14.97
2023-05-08T03:24:24.546Z,14.83
2023-05-08T03:25:27.868Z,14.75
2023-05-08T03:26:29.871Z,14.70
2023-05-08T03:27:33.217Z,14.81
2023-05-08T03:28:36.495Z,14.89
2023-05-08T03:29:39.884Z,14.97
2023-05-08T03:30:42.243Z,15.05
2023-05-08T03:31:45.194Z,15.12
2023-05-08T03:32:48.058Z,15.20
2023-05-08T03:33:53.982Z,15.22
2023-05-08T03:34:58.620Z,15.24
2023-05-08T03:36:00.211Z,15.28
2023-05-08T03:37:01.946Z,15.29
2023-05-08T03:38:04.499Z,15.30
2023-05-08T03:39:06.289Z,15.35
2023-05-08T03:40:09.790Z,15.42
2023-05-08T03:41:12.259Z,15.48
2023-05-08T03:42:21.475Z,15.53
2023-05-08T03:43:23.459Z,15.60
2023-05-08T03:44:26.101Z,15.64
2023-05-08T03:45:28.760Z,15.70
2023-05-08T03:46:33.105Z,15.77
2023-05-08T03:47:36.120Z,15.82
2023-05-08T03:48:38.800Z,15.86
2023-05-08T03:49:40.460Z,15.91
2023-05-08T03:50:42.456Z,15.94
2023-05-08T03:51:44.789Z,15.98
2023-05-08T03:52:46.571Z,16.00
2023-05-08T03:53:48.144Z,16.02
2023-05-08T03:54:49.640Z,16.05
2023-05-08T03:55:51.292Z,16.08
2023-05-08T03:56:54.719Z,16.11
2023-05-08T03:58:31.508Z,16.13
2023-05-08T03:59:52.300Z,16.15
2023-05-08T04:01:09.064Z,16.20
2023-05-08T04:02:16.492Z,16.13
2023-05-08T04:03:41.496Z,16.03
2023-05-08T04:04:47.367Z,16.00
2023-05-08T04:06:01.208Z,15.94
2023-05-08T04:07:08.578Z,15.80
2023-05-08T04:08:17.187Z,15.68
2023-05-08T04:09:31.710Z,15.61
2023-05-08T04:10:42.384Z,15.44
2023-05-08T04:11:50.557Z,15.28
2023-05-08T04:12:57.901Z,15.34
2023-05-08T04:14:03.869Z,15.34
2023-05-08T04:15:11.637Z,15.30
2023-05-08T04:16:26.997Z,15.27
2023-05-08T04:17:36.734Z,15.30
2023-05-08T04:18:44.271Z,15.28
2023-05-08T04:19:47.212Z,15.30
2023-05-08T04:20:53.782Z,15.23
2023-05-08T04:21:59.495Z,15.20
2023-05-08T04:23:02.443Z,15.24
2023-05-08T04:24:07.173Z,15.22
2023-05-08T04:25:11.288Z,15.18
2023-05-08T04:26:16.653Z,14.98
2023-05-08T04:27:18.857Z,14.79
2023-05-08T04:28:21.684Z,14.70
2023-05-08T04:29:24.288Z,14.79
2023-05-08T04:30:26.215Z,14.81
2023-05-08T04:31:28.343Z,14.81
2023-05-08T04:32:31.607Z,14.94
2023-05-08T04:33:35.385Z,15.02
2023-05-08T04:34:37.241Z,14.99
2023-05-08T04:35:38.842Z,14.93
2023-05-08T04:36:40.602Z,14.84
2023-05-08T04:37:43.577Z,14.84
2023-05-08T04:38:45.218Z,14.95
2023-05-08T04:39:51.082Z,15.04
2023-05-08T04:40:52.638Z,15.06
2023-05-08T04:41:55.771Z,15.11
2023-05-08T04:42:57.561Z,15.09
2023-05-08T04:43:59.378Z,15.01
2023-05-08T04:45:01.355Z,14.85
2023-05-08T04:46:05.799Z,14.79
2023-05-08T04:47:07.419Z,14.78
2023-05-08T04:48:08.998Z,14.88
2023-05-08T04:49:10.642Z,15.01
2023-05-08T04:50:12.418Z,15.12
2023-05-08T04:51:13.988Z,15.15
2023-05-08T04:52:15.966Z,15.12
2023-05-08T04:53:17.468Z,14.99
2023-05-08T04:54:19.037Z,15.01
2023-05-08T04:55:20.599Z,15.02
2023-05-08T04:56:22.164Z,15.05
2023-05-08T04:57:23.750Z,14.96
2023-05-08T04:58:25.388Z,14.86
2023-05-08T04:59:27.233Z,14.83
2023-05-08T05:00:28.798Z,14.84
2023-05-08T05:01:30.468Z,14.78
2023-05-08T05:02:32.109Z,14.73
2023-05-08T05:03:33.715Z,14.70
2023-05-08T05:04:36.590Z,14.62
2023-05-08T05:05:38.982Z,14.60
2023-05-08T05:06:41.105Z,14.67
2023-05-08T05:07:42.753Z,14.75
2023-05-08T05:08:44.293Z,14.76
2023-05-08T05:09:46.074Z,14.79
2023-05-08T05:10:47.629Z,14.75
2023-05-08T05:11:49.202Z,14.69
2023-05-08T05:12:50.809Z,14.74
2023-05-08T05:13:52.372Z,14.61
2023-05-08T05:14:53.984Z,14.48
2023-05-08T05:15:56.271Z,14.42
2023-05-08T05:16:58.366Z,14.42
2023-05-08T05:17:59.949Z,14.48
2023-05-08T05:19:01.550Z,14.56
2023-05-08T05:20:03.644Z,14.60
2023-05-08T05:21:05.204Z,14.72
2023-05-08T05:22:08.169Z,14.88
2023-05-08T05:23:09.729Z,14.98
2023-05-08T05:24:11.347Z,15.07
2023-05-08T05:25:13.098Z,15.21
2023-05-08T05:26:14.800Z,15.37
2023-05-08T05:27:16.348Z,15.58
2023-05-08T05:28:17.889Z,15.77
2023-05-08T05:29:19.581Z,15.94
2023-05-08T05:30:21.384Z,16.10
2023-05-08T05:31:23.085Z,16.23
2023-05-08T05:32:24.683Z,16.37
2023-05-08T05:33:26.270Z,16.49
2023-05-08T05:34:27.834Z,16.65
2023-05-08T05:35:29.415Z,16.73
2023-05-08T05:36:30.913Z,16.86
2023-05-08T05:37:32.464Z,16.98
2023-05-08T05:38:34.067Z,17.08
2023-05-08T05:39:36.331Z,17.17
2023-05-08T05:40:38.024Z,17.22
2023-05-08T05:41:39.647Z,17.29
2023-05-08T05:42:41.240Z,17.32
2023-05-08T05:43:42.789Z,17.36
2023-05-08T05:44:44.307Z,17.36
2023-05-08T05:45:45.822Z,17.44
2023-05-08T05:46:47.521Z,17.57
2023-05-08T05:47:50.091Z,17.68
2023-05-08T05:48:51.922Z,17.78
2023-05-08T05:49:53.425Z,17.87
2023-05-08T05:50:55.026Z,17.88
2023-05-08T05:51:56.880Z,17.96
2023-05-08T05:52:58.386Z,17.97
2023-05-08T05:54:00.056Z,17.97
2023-05-08T05:55:01.636Z,17.97
2023-05-08T05:56:03.229Z,18.02
2023-05-08T05:57:05.333Z,18.11
2023-05-08T05:58:07.001Z,18.12
2023-05-08T05:59:08.833Z,18.12
2023-05-08T06:00:11.376Z,18.21
2023-05-08T06:01:12.978Z,18.35
2023-05-08T06:02:18.648Z,18.44
2023-05-08T06:03:22.482Z,18.53
2023-05-08T06:04:24.179Z,18.69
2023-05-08T06:05:25.938Z,18.81
2023-05-08T06:06:27.694Z,18.93
2023-05-08T06:07:29.322Z,19.06
2023-05-08T06:08:30.949Z,19.16
2023-05-08T06:09:32.470Z,19.21
2023-05-08T06:10:34.561Z,19.28
2023-05-08T06:11:36.443Z,19.34
2023-05-08T06:12:38.012Z,19.22
2023-05-08T06:13:40.904Z,19.21
2023-05-08T06:14:42.390Z,19.24
2023-05-08T06:15:44.008Z,19.25
2023-05-08T06:16:45.560Z,19.27
2023-05-08T06:17:47.252Z,19.30
2023-05-08T06:18:48.937Z,19.34
2023-05-08T06:19:53.974Z,19.35
2023-05-08T06:20:59.092Z,19.36
2023-05-08T06:22:00.761Z,19.26
2023-05-08T06:23:02.445Z,19.18
2023-05-08T06:24:04.159Z,19.20
2023-05-08T06:25:09.710Z,19.23
2023-05-08T06:26:11.430Z,19.14
2023-05-08T06:27:12.974Z,19.15
2023-05-08T06:28:14.516Z,19.27
2023-05-08T06:29:16.089Z,19.33
2023-05-08T06:30:17.658Z,19.49
2023-05-08T06:31:19.265Z,19.69
2023-05-08T06:32:21.339Z,19.84
2023-05-08T06:33:25.428Z,20.01
2023-05-08T06:34:28.252Z,20.22
2023-05-08T06:35:29.774Z,20.41
2023-05-08T06:36:31.840Z,20.54
2023-05-08T06:37:33.477Z,20.73
2023-05-08T06:38:35.050Z,20.78
2023-05-08T06:39:36.827Z,20.67
2023-05-08T06:40:42.461Z,20.13
2023-05-08T06:41:47.814Z,20.04
2023-05-08T06:42:49.478Z,19.92
2023-05-08T06:43:51.086Z,20.11
2023-05-08T06:44:53.740Z,20.27
2023-05-08T06:45:55.323Z,20.29
2023-05-08T06:46:56.984Z,20.28
2023-05-08T06:47:58.653Z,20.26
2023-05-08T06:49:00.242Z,20.22
2023-05-08T06:50:01.857Z,20.20
2023-05-08T06:51:03.706Z,20.42
2023-05-08T06:52:05.338Z,20.47
2023-05-08T06:53:08.091Z,20.64
2023-05-08T06:54:09.650Z,20.84
2023-05-08T06:55:11.737Z,21.10
2023-05-08T06:56:13.469Z,21.15
2023-05-08T06:57:16.253Z,21.10
2023-05-08T06:58:17.793Z,21.19
2023-05-08T06:59:19.344Z,21.32
2023-05-08T07:00:21.215Z,21.49
2023-05-08T07:01:22.842Z,21.54
2023-05-08T07:02:24.480Z,21.70
2023-05-08T07:03:26.196Z,21.80
2023-05-08T07:05:29.760Z,21.87
2023-05-08T07:06:31.394Z,22.04
2023-05-08T07:07:32.944Z,22.04
2023-05-08T07:08:34.645Z,21.93
2023-05-08T07:09:36.275Z,21.97
2023-05-08T07:10:37.820Z,22.28
2023-05-08T07:11:39.377Z,22.41
2023-05-08T07:12:41.320Z,22.28
2023-05-08T07:13:43.584Z,22.35
2023-05-08T07:14:45.667Z,22.60
2023-05-08T07:15:47.356Z,22.73
2023-05-08T07:16:48.937Z,22.75
2023-05-08T07:17:50.615Z,22.88
2023-05-08T07:18:52.649Z,23.06
2023-05-08T07:19:54.187Z,23.18
2023-05-08T07:20:55.711Z,23.09
2023-05-08T07:21:57.321Z,22.87
2023-05-08T07:22:58.868Z,22.41
2023-05-08T07:24:00.469Z,22.11
2023-05-08T07:25:02.196Z,21.98
2023-05-08T07:26:03.842Z,22.11
2023-05-08T07:27:05.405Z,22.28
2023-05-08T07:28:08.116Z,21.91
2023-05-08T07:29:09.748Z,21.94
2023-05-08T07:30:11.525Z,21.96
2023-05-08T07:31:13.113Z,22.18
2023-05-08T07:32:15.428Z,22.39
2023-05-08T07:33:17.373Z,22.56
2023-05-08T07:34:19.230Z,22.49
2023-05-08T07:35:20.788Z,22.62
2023-05-08T07:36:22.866Z,22.87
2023-05-08T07:37:24.625Z,22.74
2023-05-08T07:38:26.405Z,22.41
2023-05-08T07:39:27.971Z,22.34
2023-05-08T07:40:29.471Z,22.27
2023-05-08T07:41:31.070Z,22.34
2023-05-08T07:42:38.767Z,22.34
2023-05-08T07:43:40.618Z,22.37
2023-05-08T07:44:53.774Z,22.43
2023-05-08T07:45:57.175Z,22.47
2023-05-08T07:46:58.955Z,22.67
2023-05-08T07:48:00.724Z,22.85
2023-05-08T07:49:02.452Z,22.92
2023-05-08T07:50:04.812Z,23.11
2023-05-08T07:51:06.337Z,23.22
2023-05-08T07:52:07.876Z,23.22
2023-05-08T07:53:09.401Z,23.22
2023-05-08T07:54:10.968Z,23.25
2023-05-08T07:55:15.572Z,23.41
2023-05-08T07:56:17.171Z,23.36
2023-05-08T07:57:18.688Z,23.46
2023-05-08T07:58:21.626Z,23.65
2023-05-08T07:59:25.022Z,23.57
2023-05-08T08:00:29.929Z,23.64
2023-05-08T08:01:31.636Z,23.78
2023-05-08T08:02:33.359Z,23.80
2023-05-08T08:03:35.000Z,23.63
2023-05-08T08:04:36.743Z,23.60
2023-05-08T08:05:38.370Z,23.60
2023-05-08T08:06:40.358Z,23.71
2023-05-08T08:07:41.923Z,23.76
2023-05-08T08:08:43.438Z,23.77
2023-05-08T08:09:44.984Z,23.39
2023-05-08T08:10:46.555Z,23.21
2023-05-08T08:11:48.127Z,23.21
2023-05-08T08:12:49.726Z,23.36
2023-05-08T08:13:51.293Z,23.53
2023-05-08T08:14:52.979Z,23.50
2023-05-08T08:15:54.565Z,23.42
2023-05-08T08:16:56.094Z,23.50
2023-05-08T08:17:57.813Z,23.72
2023-05-08T08:19:00.065Z,23.90
2023-05-08T08:20:01.717Z,24.07
2023-05-08T08:21:06.814Z,24.39
2023-05-08T08:22:08.351Z,24.59
2023-05-08T08:23:10.044Z,24.80
2023-05-08T08:24:12.324Z,24.90
2023-05-08T08:25:14.143Z,24.94
2023-05-08T08:26:15.915Z,25.05
2023-05-08T08:27:17.548Z,25.17
2023-05-08T08:28:19.858Z,25.27
2023-05-08T08:29:21.544Z,25.18
2023-05-08T08:30:23.158Z,25.01
2023-05-08T08:31:24.909Z,24.80
2023-05-08T08:32:26.582Z,24.99
2023-05-08T08:33:29.558Z,25.27
2023-05-08T08:34:33.769Z,25.42
2023-05-08T08:35:35.532Z,25.38
2023-05-08T08:36:37.229Z,25.34
2023-05-08T08:37:38.780Z,25.24
2023-05-08T08:38:40.544Z,25.15
2023-05-08T08:39:42.109Z,25.20
2023-05-08T08:40:43.707Z,25.23
2023-05-08T08:41:45.302Z,25.09
2023-05-08T08:42:47.372Z,25.18
2023-05-08T08:43:49.137Z,25.35
2023-05-08T08:44:51.317Z,25.42
2023-05-08T08:45:53.099Z,25.56
2023-05-08T08:46:55.748Z,25.71
2023-05-08T08:48:01.965Z,25.71
2023-05-08T08:49:05.019Z,25.77
2023-05-08T08:50:11.292Z,25.88
2023-05-08T08:51:31.378Z,25.93
2023-05-08T08:53:06.787Z,25.89
2023-05-08T08:54:13.563Z,25.98
2023-05-08T08:55:18.059Z,26.04
2023-05-08T08:56:23.673Z,26.12
2023-05-08T08:57:28.749Z,26.25
2023-05-08T08:58:39.044Z,26.18
2023-05-08T08:59:43.152Z,26.19
2023-05-08T09:00:45.410Z,26.25
2023-05-08T09:01:56.437Z,26.22
2023-05-08T09:02:58.626Z,26.19
2023-05-08T09:04:00.980Z,26.28
2023-05-08T09:05:03.983Z,26.25
2023-05-08T09:06:06.629Z,26.15
2023-05-08T09:07:09.605Z,26.08
2023-05-08T09:08:12.782Z,26.14
2023-05-08T09:09:14.389Z,26.16
2023-05-08T09:10:16.098Z,26.19
2023-05-08T09:11:17.624Z,26.26
2023-05-08T09:12:19.219Z,26.32
2023-05-08T09:13:20.819Z,26.17
2023-05-08T09:14:24.475Z,26.16
2023-05-08T09:15:26.078Z,26.28
2023-05-08T09:16:28.519Z,26.28
2023-05-08T09:17:30.329Z,26.06
2023-05-08T09:18:31.975Z,25.98
2023-05-08T09:19:33.853Z,25.88
2023-05-08T09:20:35.753Z,25.62
2023-05-08T09:21:37.760Z,25.34
2023-05-08T09:22:40.632Z,25.22
2023-05-08T09:24:02.629Z,25.12
2023-05-08T09:25:04.706Z,24.82
2023-05-08T09:26:06.305Z,24.58
2023-05-08T09:27:22.221Z,24.27
2023-05-08T09:28:26.877Z,24.15
2023-05-08T09:29:28.443Z,24.03
2023-05-08T09:30:29.998Z,23.92
2023-05-08T09:31:40.596Z,23.75
2023-05-08T09:32:44.540Z,23.75
2023-05-08T09:33:46.177Z,23.72
2023-05-08T09:34:52.632Z,23.65
2023-05-08T09:35:58.136Z,23.45
2023-05-08T09:37:05.549Z,23.34
2023-05-08T09:38:07.218Z,23.24
2023-05-08T09:39:12.665Z,23.03
2023-05-08T09:40:19.898Z,22.94
2023-05-08T09:41:23.362Z,22.83
2023-05-08T09:42:37.270Z,22.84
2023-05-08T09:43:39.545Z,22.72
2023-05-08T09:44:51.348Z,22.67
2023-05-08T09:45:52.875Z,22.57
2023-05-08T09:47:14.921Z,22.46
2023-05-08T09:48:16.606Z,22.42
2023-05-08T09:49:18.931Z,22.45
2023-05-08T09:50:20.493Z,22.40
2023-05-08T09:51:23.267Z,22.41
2023-05-08T09:52:26.370Z,22.45
2023-05-08T09:53:32.483Z,22.51
2023-05-08T09:54:34.384Z,22.48
2023-05-08T09:55:48.375Z,22.47
2023-05-08T09:56:50.007Z,22.50
2023-05-08T09:57:57.217Z,22.58
2023-05-08T09:58:58.789Z,22.62
2023-05-08T10:00:06.113Z,22.56
2023-05-08T10:01:09.179Z,22.48
2023-05-08T10:02:12.241Z,22.09
2023-05-08T10:03:14.030Z,21.81
2023-05-08T10:04:15.967Z,21.57
2023-05-08T10:05:23.573Z,21.33
2023-05-08T10:06:25.759Z,21.21
2023-05-08T10:07:31.556Z,21.10
2023-05-08T10:08:33.099Z,21.02
2023-05-08T10:09:46.912Z,21.00
2023-05-08T10:10:51.804Z,20.88
2023-05-08T10:11:55.483Z,20.81
2023-05-08T10:12:58.738Z,20.79
2023-05-08T10:14:01.208Z,20.77
2023-05-08T10:15:02.725Z,20.76
2023-05-08T10:16:05.118Z,20.72
2023-05-08T10:17:10.314Z,20.72
2023-05-08T10:18:13.130Z,20.75
2023-05-08T10:19:17.371Z,20.78
2023-05-08T10:20:21.625Z,20.79
2023-05-08T10:21:28.528Z,20.84
2023-05-08T10:22:33.689Z,20.87
2023-05-08T10:23:37.849Z,20.92
2023-05-08T10:24:41.729Z,20.95
2023-05-08T10:25:48.281Z,20.98
2023-05-08T10:27:05.686Z,21.12
2023-05-08T10:28:33.099Z,21.25
2023-05-08T10:29:43.064Z,21.30
2023-05-08T10:30:48.902Z,21.41
2023-05-08T10:31:54.426Z,21.44
2023-05-08T10:32:59.285Z,21.41
2023-05-08T10:34:02.580Z,21.46
2023-05-08T10:35:08.726Z,21.53
2023-05-08T10:36:11.134Z,21.55
2023-05-08T10:37:13.129Z,21.63
2023-05-08T10:38:16.541Z,21.70
2023-05-08T10:39:18.185Z,21.80
2023-05-08T10:40:21.447Z,21.83
2023-05-08T10:41:23.955Z,21.83
2023-05-08T10:42:26.093Z,21.85
2023-05-08T10:43:33.539Z,21.95
2023-05-08T10:44:35.362Z,21.99
2023-05-08T10:45:37.592Z,21.96
2023-05-08T10:47:16.173Z,22.02
2023-05-08T10:49:02.508Z,22.05
2023-05-08T10:50:19.156Z,22.08
2023-05-08T10:51:44.209Z,21.88
2023-05-08T10:53:07.022Z,21.66
2023-05-08T10:54:08.502Z,21.47
2023-05-08T10:55:25.222Z,21.21
2023-05-08T10:56:27.696Z,20.98
2023-05-08T10:57:29.353Z,20.96
2023-05-08T10:58:41.019Z,21.02
2023-05-08T10:59:47.094Z,21.08
2023-05-08T11:00:57.624Z,21.02
2023-05-08T11:02:06.048Z,20.78
2023-05-08T11:03:20.132Z,20.79
2023-05-08T11:04:29.371Z,20.80
2023-05-08T11:05:31.181Z,20.70
2023-05-08T11:06:45.479Z,20.46
2023-05-08T11:07:57.340Z,20.28
2023-05-08T11:09:00.605Z,20.25
2023-05-08T11:10:14.123Z,20.22
2023-05-08T11:11:31.573Z,20.30
2023-05-08T11:12:33.966Z,20.47
2023-05-08T11:13:38.662Z,20.66
2023-05-08T11:14:42.759Z,20.87
2023-05-08T11:15:50.567Z,21.03
2023-05-08T11:16:55.244Z,21.14
2023-05-08T11:17:56.883Z,21.20
2023-05-08T11:19:18.439Z,21.30
2023-05-08T11:20:23.711Z,21.39
2023-05-08T11:21:25.414Z,21.46
2023-05-08T11:22:29.170Z,21.40
2023-05-08T11:23:32.560Z,21.27
2023-05-08T11:24:38.223Z,21.21
2023-05-08T11:25:44.306Z,21.11
2023-05-08T11:26:49.041Z,21.22
2023-05-08T11:27:50.682Z,21.25
2023-05-08T11:28:58.575Z,21.44
2023-05-08T11:30:22.934Z,21.63
2023-05-08T11:31:27.697Z,21.78
2023-05-08T11:32:58.010Z,21.73
2023-05-08T11:33:59.648Z,21.78
2023-05-08T11:35:01.185Z,21.86
2023-05-08T11:36:14.107Z,21.91
2023-05-08T11:37:25.526Z,22.03
2023-05-08T11:38:28.494Z,22.17
2023-05-08T11:39:30.058Z,22.28
2023-05-08T11:40:53.312Z,22.41
2023-05-08T11:41:55.150Z,22.48
2023-05-08T11:43:02.424Z,22.52
2023-05-08T11:44:09.414Z,22.59
2023-05-08T11:45:14.146Z,22.47
2023-05-08T11:46:17.602Z,22.22
2023-05-08T11:47:21.595Z,22.00
2023-05-08T11:49:55.531Z,21.79
2023-05-08T11:50:57.273Z,21.70
2023-05-08T11:51:59.618Z,21.78
2023-05-08T11:53:01.771Z,21.91
2023-05-08T11:54:04.415Z,22.06
2023-05-08T11:55:17.325Z,22.18
2023-05-08T11:56:19.140Z,22.28
2023-05-08T11:57:21.013Z,22.39
2023-05-08T11:58:22.684Z,22.49
2023-05-08T11:59:24.321Z,22.59
2023-05-08T12:00:29.096Z,22.59
2023-05-08T12:01:33.332Z,22.57
2023-05-08T12:02:36.967Z,22.36
2023-05-08T12:03:38.669Z,22.25
2023-05-08T12:04:45.519Z,22.00
2023-05-08T12:05:50.198Z,21.84
2023-05-08T12:06:57.573Z,21.86
2023-05-08T12:07:59.722Z,21.80
2023-05-08T12:09:02.266Z,21.77
2023-05-08T12:10:03.985Z,21.79
2023-05-08T12:11:12.104Z,21.97
2023-05-08T12:12:13.691Z,22.14
2023-05-08T12:13:35.772Z,22.19
2023-05-08T12:14:37.340Z,22.29
2023-05-08T12:15:38.873Z,22.34
2023-05-08T12:16:46.934Z,22.36
2023-05-08T12:17:48.675Z,22.58
2023-05-08T12:18:51.836Z,22.71
2023-05-08T12:19:56.713Z,22.72
2023-05-08T12:21:00.542Z,22.72
2023-05-08T12:22:05.486Z,22.73
2023-05-08T12:23:07.155Z,22.74
2023-05-08T12:24:11.304Z,22.70
2023-05-08T12:25:16.161Z,22.76
2023-05-08T12:26:18.010Z,22.89
2023-05-08T12:27:23.413Z,22.94
2023-05-08T12:28:24.959Z,23.05
2023-05-08T12:29:26.525Z,23.11
2023-05-08T12:30:28.257Z,23.14
2023-05-08T12:31:30.077Z,23.19
2023-05-08T12:32:35.023Z,23.22
2023-05-08T12:33:38.628Z,23.27
2023-05-08T12:34:40.284Z,23.34
2023-05-08T12:35:42.134Z,23.43
2023-05-08T12:36:43.691Z,23.47
2023-05-08T12:37:46.418Z,23.55
2023-05-08T12:38:47.995Z,23.64
2023-05-08T12:39:49.508Z,23.62
2023-05-08T12:40:53.140Z,23.66
2023-05-08T12:41:54.699Z,23.62
2023-05-08T12:44:31.574Z,23.62
2023-05-08T12:45:35.812Z,23.77
2023-05-08T12:46:45.763Z,23.78
2023-05-08T12:47:51.999Z,23.70
2023-05-08T12:49:01.560Z,23.58
2023-05-08T12:50:10.172Z,23.65
2023-05-08T12:51:12.100Z,23.65
2023-05-08T12:52:13.946Z,23.69
2023-05-08T12:53:17.993Z,23.74
2023-05-08T12:54:19.944Z,23.79
2023-05-08T12:55:30.368Z,23.70
2023-05-08T12:56:32.057Z,23.62
2023-05-08T12:57:37.038Z,23.58
2023-05-08T12:58:38.596Z,23.59
2023-05-08T12:59:41.324Z,23.69
2023-05-08T13:00:42.864Z,23.66
2023-05-08T13:01:50.910Z,23.73
2023-05-08T13:02:56.221Z,23.85
2023-05-08T13:04:02.166Z,23.82
2023-05-08T13:05:05.890Z,23.75
2023-05-08T13:06:08.287Z,23.73
2023-05-08T13:07:10.170Z,23.74
2023-05-08T13:08:11.835Z,23.78
2023-05-08T13:09:18.537Z,23.86
2023-05-08T13:10:23.021Z,23.92
2023-05-08T13:11:31.403Z,23.98
2023-05-08T13:12:33.013Z,24.02
2023-05-08T13:13:37.198Z,23.88
2023-05-08T13:14:39.716Z,23.85
2023-05-08T13:15:41.935Z,23.89
2023-05-08T13:16:45.381Z,23.95
2023-05-08T13:17:47.204Z,24.01
2023-05-08T13:18:48.777Z,24.01
2023-05-08T13:19:50.468Z,24.06
2023-05-08T13:20:52.173Z,24.11
2023-05-08T13:21:53.772Z,24.18
2023-05-08T13:22:55.411Z,24.19
2023-05-08T13:23:57.132Z,24.22
2023-05-08T13:24:58.743Z,24.26
2023-05-08T13:26:00.632Z,24.25
2023-05-08T13:27:03.145Z,24.06
2023-05-08T13:28:05.546Z,23.99
2023-05-08T13:29:07.196Z,24.03
2023-05-08T13:30:09.074Z,24.01
2023-05-08T13:31:10.577Z,23.92
2023-05-08T13:32:12.267Z,23.79
2023-05-08T13:33:14.016Z,23.79
2023-05-08T13:34:15.541Z,23.94
2023-05-08T13:35:18.158Z,23.99
2023-05-08T13:36:20.975Z,24.02
2023-05-08T13:37:22.546Z,24.01
2023-05-08T13:38:24.035Z,24.06
2023-05-08T13:39:25.549Z,24.08
2023-05-08T13:40:27.639Z,24.09
2023-05-08T13:41:29.167Z,24.05
2023-05-08T13:42:30.697Z,24.08
2023-05-08T13:43:32.259Z,24.08
2023-05-08T13:44:33.870Z,24.10
2023-05-08T13:45:35.519Z,24.13
2023-05-08T13:46:37.145Z,24.16
2023-05-08T13:47:38.880Z,24.24
2023-05-08T13:48:40.395Z,24.27
2023-05-08T13:49:42.005Z,24.30
2023-05-08T13:50:43.555Z,24.29
2023-05-08T13:51:47.205Z,24.26
2023-05-08T13:52:52.279Z,24.17
2023-05-08T13:53:56.183Z,24.18
2023-05-08T13:54:58.310Z,24.14
2023-05-08T13:56:00.875Z,23.99
2023-05-08T13:57:02.731Z,23.93